sensor_id;sensor_type;location;lat;lon;timestamp;P1;durP1;ratioP1;P2;durP2;ratioP2
75768;SDS011;64379;48.888;8.330;2022-12-20T00:00:43;29.02;;;14.00;;
75768;SDS011;64379;48.888;8.330;2022-12-20T00:03:08;29.88;;;13.50;;
75768;SDS011;64379;48.888;8.330;2022-12-20T00:05:38;26.85;;;13.52;;
75768;SDS011;64379;48.888;8.330;2022-12-20T00:08:04;28.77;;;14.00;;
75768;SDS011;64379;48.888;8.330;2022-12-20T00:10:34;25.75;;;13.35;;
75768;SDS011;64379;48.888;8.330;2022-12-20T00:13:04;26.52;;;12.88;;
75768;SDS011;64379;48.888;8.330;2022-12-20T00:15:30;25.95;;;13.23;;
75768;SDS011;64379;48.888;8.330;2022-12-20T00:17:56;24.40;;;11.80;;
75768;SDS011;64379;48.888;8.330;2022-12-20T00:20:22;20.55;;;9.85;;
75768;SDS011;64379;48.888;8.330;2022-12-20T00:22:49;20.65;;;10.40;;
75768;SDS011;64379;48.888;8.330;2022-12-20T00:25:14;20.52;;;10.68;;
75768;SDS011;64379;48.888;8.330;2022-12-20T00:27:40;17.40;;;8.85;;
75768;SDS011;64379;48.888;8.330;2022-12-20T00:30:07;18.55;;;8.50;;
75768;SDS011;64379;48.888;8.330;2022-12-20T00:32:33;14.65;;;7.63;;
75768;SDS011;64379;48.888;8.330;2022-12-20T00:34:59;21.42;;;8.38;;
75768;SDS011;64379;48.888;8.330;2022-12-20T00:37:24;16.77;;;8.55;;
75768;SDS011;64379;48.888;8.330;2022-12-20T00:39:50;16.77;;;8.55;;
75768;SDS011;64379;48.888;8.330;2022-12-20T00:42:15;17.75;;;9.00;;
75768;SDS011;64379;48.888;8.330;2022-12-20T00:44:41;15.45;;;7.97;;
75768;SDS011;64379;48.888;8.330;2022-12-20T00:47:06;18.63;;;9.40;;
75768;SDS011;64379;48.888;8.330;2022-12-20T00:49:32;17.90;;;9.52;;
75768;SDS011;64379;48.888;8.330;2022-12-20T00:51:58;19.08;;;9.30;;
75768;SDS011;64379;48.888;8.330;2022-12-20T00:54:23;16.38;;;8.63;;
75768;SDS011;64379;48.888;8.330;2022-12-20T00:56:49;16.98;;;8.65;;
75768;SDS011;64379;48.888;8.330;2022-12-20T00:59:14;15.57;;;8.35;;
75768;SDS011;64379;48.888;8.330;2022-12-20T01:01:40;18.05;;;8.70;;
75768;SDS011;64379;48.888;8.330;2022-12-20T01:04:05;20.85;;;8.27;;
75768;SDS011;64379;48.888;8.330;2022-12-20T01:06:32;20.75;;;9.77;;
75768;SDS011;64379;48.888;8.330;2022-12-20T01:08:58;20.33;;;9.90;;
75768;SDS011;64379;48.888;8.330;2022-12-20T01:11:24;22.80;;;10.05;;
75768;SDS011;64379;48.888;8.330;2022-12-20T01:13:54;23.42;;;10.95;;
75768;SDS011;64379;48.888;8.330;2022-12-20T01:16:43;22.35;;;10.38;;
75768;SDS011;64379;48.888;8.330;2022-12-20T01:19:09;23.40;;;10.80;;
75768;SDS011;64379;48.888;8.330;2022-12-20T01:21:37;22.25;;;9.98;;
75768;SDS011;64379;48.888;8.330;2022-12-20T01:24:12;22.60;;;10.18;;
75768;SDS011;64379;48.888;8.330;2022-12-20T01:26:39;21.65;;;9.05;;
75768;SDS011;64379;48.888;8.330;2022-12-20T01:29:05;19.17;;;9.85;;
75768;SDS011;64379;48.888;8.330;2022-12-20T01:31:30;18.83;;;9.10;;
75768;SDS011;64379;48.888;8.330;2022-12-20T01:33:56;20.65;;;9.30;;
75768;SDS011;64379;48.888;8.330;2022-12-20T01:36:24;17.20;;;9.30;;
75768;SDS011;64379;48.888;8.330;2022-12-20T01:38:55;16.65;;;8.38;;
75768;SDS011;64379;48.888;8.330;2022-12-20T01:41:22;18.92;;;8.98;;
75768;SDS011;64379;48.888;8.330;2022-12-20T01:43:51;19.25;;;10.05;;
75768;SDS011;64379;48.888;8.330;2022-12-20T01:46:21;18.80;;;9.40;;
75768;SDS011;64379;48.888;8.330;2022-12-20T01:48:53;18.30;;;8.88;;
75768;SDS011;64379;48.888;8.330;2022-12-20T01:51:26;19.30;;;9.02;;
75768;SDS011;64379;48.888;8.330;2022-12-20T01:53:57;16.80;;;9.05;;
75768;SDS011;64379;48.888;8.330;2022-12-20T01:56:46;17.92;;;7.18;;
75768;SDS011;64379;48.888;8.330;2022-12-20T01:59:16;13.05;;;6.07;;
75768;SDS011;64379;48.888;8.330;2022-12-20T02:01:42;12.95;;;5.32;;
75768;SDS011;64379;48.888;8.330;2022-12-20T02:04:08;13.18;;;6.35;;
75768;SDS011;64379;48.888;8.330;2022-12-20T02:06:34;13.95;;;7.13;;
75768;SDS011;64379;48.888;8.330;2022-12-20T02:09:00;13.63;;;6.93;;
75768;SDS011;64379;48.888;8.330;2022-12-20T02:14:08;15.02;;;7.43;;
75768;SDS011;64379;48.888;8.330;2022-12-20T02:16:43;12.98;;;6.80;;
75768;SDS011;64379;48.888;8.330;2022-12-20T02:30:39;12.75;;;6.43;;
75768;SDS011;64379;48.888;8.330;2022-12-20T02:33:07;15.52;;;6.50;;
75768;SDS011;64379;48.888;8.330;2022-12-20T02:35:36;13.43;;;6.70;;
75768;SDS011;64379;48.888;8.330;2022-12-20T02:40:58;11.77;;;5.50;;
75768;SDS011;64379;48.888;8.330;2022-12-20T02:43:30;11.52;;;5.75;;
75768;SDS011;64379;48.888;8.330;2022-12-20T02:46:18;11.18;;;5.55;;
75768;SDS011;64379;48.888;8.330;2022-12-20T02:48:46;12.98;;;5.70;;
75768;SDS011;64379;48.888;8.330;2022-12-20T02:51:12;14.38;;;6.45;;
75768;SDS011;64379;48.888;8.330;2022-12-20T02:53:40;12.57;;;5.93;;
75768;SDS011;64379;48.888;8.330;2022-12-20T03:01:20;14.93;;;7.53;;
75768;SDS011;64379;48.888;8.330;2022-12-20T03:03:50;13.90;;;7.50;;
75768;SDS011;64379;48.888;8.330;2022-12-20T03:06:18;12.73;;;6.57;;
75768;SDS011;64379;48.888;8.330;2022-12-20T03:08:44;21.60;;;8.05;;
75768;SDS011;64379;48.888;8.330;2022-12-20T03:11:10;16.85;;;7.55;;
75768;SDS011;64379;48.888;8.330;2022-12-20T03:13:36;15.38;;;7.55;;
75768;SDS011;64379;48.888;8.330;2022-12-20T03:16:01;19.55;;;9.20;;
75768;SDS011;64379;48.888;8.330;2022-12-20T03:18:27;21.20;;;9.20;;
75768;SDS011;64379;48.888;8.330;2022-12-20T03:20:53;18.15;;;8.95;;
75768;SDS011;64379;48.888;8.330;2022-12-20T03:23:18;22.95;;;10.50;;
75768;SDS011;64379;48.888;8.330;2022-12-20T03:25:45;23.98;;;11.35;;
75768;SDS011;64379;48.888;8.330;2022-12-20T03:28:11;25.63;;;10.82;;
75768;SDS011;64379;48.888;8.330;2022-12-20T03:30:37;22.13;;;10.65;;
75768;SDS011;64379;48.888;8.330;2022-12-20T03:33:02;24.42;;;10.30;;
75768;SDS011;64379;48.888;8.330;2022-12-20T03:35:28;25.92;;;11.52;;
75768;SDS011;64379;48.888;8.330;2022-12-20T03:37:54;20.48;;;9.98;;
75768;SDS011;64379;48.888;8.330;2022-12-20T03:40:20;22.30;;;9.82;;
75768;SDS011;64379;48.888;8.330;2022-12-20T03:42:46;22.92;;;10.57;;
75768;SDS011;64379;48.888;8.330;2022-12-20T03:45:12;19.83;;;8.98;;
75768;SDS011;64379;48.888;8.330;2022-12-20T03:47:38;21.80;;;9.57;;
75768;SDS011;64379;48.888;8.330;2022-12-20T03:50:04;18.25;;;8.15;;
75768;SDS011;64379;48.888;8.330;2022-12-20T03:52:31;20.65;;;9.52;;
75768;SDS011;64379;48.888;8.330;2022-12-20T03:54:56;23.27;;;10.80;;
75768;SDS011;64379;48.888;8.330;2022-12-20T03:57:22;19.88;;;9.07;;
75768;SDS011;64379;48.888;8.330;2022-12-20T03:59:47;19.95;;;9.15;;
75768;SDS011;64379;48.888;8.330;2022-12-20T04:02:13;22.35;;;9.77;;
75768;SDS011;64379;48.888;8.330;2022-12-20T04:04:39;17.58;;;8.52;;
75768;SDS011;64379;48.888;8.330;2022-12-20T04:07:04;17.80;;;8.43;;
75768;SDS011;64379;48.888;8.330;2022-12-20T04:09:30;17.90;;;8.55;;
75768;SDS011;64379;48.888;8.330;2022-12-20T04:11:55;19.35;;;8.82;;
75768;SDS011;64379;48.888;8.330;2022-12-20T04:14:21;20.92;;;9.10;;
75768;SDS011;64379;48.888;8.330;2022-12-20T04:16:46;17.85;;;9.43;;
75768;SDS011;64379;48.888;8.330;2022-12-20T04:19:12;17.83;;;8.45;;
75768;SDS011;64379;48.888;8.330;2022-12-20T04:21:38;17.42;;;8.25;;
75768;SDS011;64379;48.888;8.330;2022-12-20T04:24:04;21.77;;;9.20;;
75768;SDS011;64379;48.888;8.330;2022-12-20T04:26:30;17.13;;;8.57;;
75768;SDS011;64379;48.888;8.330;2022-12-20T04:28:56;14.63;;;8.23;;
75768;SDS011;64379;48.888;8.330;2022-12-20T04:31:22;14.15;;;7.20;;
75768;SDS011;64379;48.888;8.330;2022-12-20T04:33:48;16.08;;;7.38;;
75768;SDS011;64379;48.888;8.330;2022-12-20T04:36:14;16.63;;;8.80;;
75768;SDS011;64379;48.888;8.330;2022-12-20T04:38:39;18.88;;;9.20;;
75768;SDS011;64379;48.888;8.330;2022-12-20T04:41:05;18.88;;;9.45;;
75768;SDS011;64379;48.888;8.330;2022-12-20T04:43:31;18.17;;;9.07;;
75768;SDS011;64379;48.888;8.330;2022-12-20T04:45:57;20.42;;;9.50;;
75768;SDS011;64379;48.888;8.330;2022-12-20T04:48:23;18.92;;;9.27;;
75768;SDS011;64379;48.888;8.330;2022-12-20T04:50:53;18.45;;;9.32;;
75768;SDS011;64379;48.888;8.330;2022-12-20T04:53:20;22.52;;;10.93;;
75768;SDS011;64379;48.888;8.330;2022-12-20T04:56:05;20.02;;;10.13;;
75768;SDS011;64379;48.888;8.330;2022-12-20T04:58:32;20.38;;;9.70;;
75768;SDS011;64379;48.888;8.330;2022-12-20T05:00:57;21.48;;;10.93;;
75768;SDS011;64379;48.888;8.330;2022-12-20T05:03:24;22.90;;;10.45;;
75768;SDS011;64379;48.888;8.330;2022-12-20T05:05:50;21.45;;;9.75;;
75768;SDS011;64379;48.888;8.330;2022-12-20T05:08:16;21.15;;;10.23;;
75768;SDS011;64379;48.888;8.330;2022-12-20T05:10:42;21.00;;;10.15;;
75768;SDS011;64379;48.888;8.330;2022-12-20T05:13:08;25.95;;;12.38;;
75768;SDS011;64379;48.888;8.330;2022-12-20T05:15:34;25.38;;;12.48;;
75768;SDS011;64379;48.888;8.330;2022-12-20T05:18:00;26.23;;;11.98;;
75768;SDS011;64379;48.888;8.330;2022-12-20T05:20:27;26.67;;;12.63;;
75768;SDS011;64379;48.888;8.330;2022-12-20T05:22:53;25.52;;;12.63;;
75768;SDS011;64379;48.888;8.330;2022-12-20T05:25:48;25.40;;;13.27;;
75768;SDS011;64379;48.888;8.330;2022-12-20T05:28:33;23.15;;;11.05;;
75768;SDS011;64379;48.888;8.330;2022-12-20T05:30:59;24.80;;;12.48;;
75768;SDS011;64379;48.888;8.330;2022-12-20T05:33:25;24.17;;;12.10;;
75768;SDS011;64379;48.888;8.330;2022-12-20T05:35:51;24.58;;;13.00;;
75768;SDS011;64379;48.888;8.330;2022-12-20T05:38:17;23.52;;;11.70;;
75768;SDS011;64379;48.888;8.330;2022-12-20T05:40:45;25.98;;;13.30;;
75768;SDS011;64379;48.888;8.330;2022-12-20T05:43:11;23.13;;;11.82;;
75768;SDS011;64379;48.888;8.330;2022-12-20T05:45:37;22.38;;;11.57;;
75768;SDS011;64379;48.888;8.330;2022-12-20T05:48:03;23.80;;;11.20;;
75768;SDS011;64379;48.888;8.330;2022-12-20T05:50:28;24.70;;;12.95;;
75768;SDS011;64379;48.888;8.330;2022-12-20T05:52:54;26.77;;;12.60;;
75768;SDS011;64379;48.888;8.330;2022-12-20T05:55:19;27.08;;;13.20;;
75768;SDS011;64379;48.888;8.330;2022-12-20T05:57:45;30.30;;;14.20;;
75768;SDS011;64379;48.888;8.330;2022-12-20T06:00:12;26.95;;;13.10;;
75768;SDS011;64379;48.888;8.330;2022-12-20T06:02:39;25.17;;;11.80;;
75768;SDS011;64379;48.888;8.330;2022-12-20T06:05:05;28.27;;;14.50;;
75768;SDS011;64379;48.888;8.330;2022-12-20T06:07:30;25.55;;;11.93;;
75768;SDS011;64379;48.888;8.330;2022-12-20T06:09:57;23.80;;;12.35;;
75768;SDS011;64379;48.888;8.330;2022-12-20T06:12:23;23.70;;;11.15;;
75768;SDS011;64379;48.888;8.330;2022-12-20T06:14:49;21.00;;;10.70;;
75768;SDS011;64379;48.888;8.330;2022-12-20T06:17:15;20.05;;;10.68;;
75768;SDS011;64379;48.888;8.330;2022-12-20T06:19:40;19.35;;;10.27;;
75768;SDS011;64379;48.888;8.330;2022-12-20T06:22:07;17.65;;;9.57;;
75768;SDS011;64379;48.888;8.330;2022-12-20T06:24:36;20.42;;;10.40;;
75768;SDS011;64379;48.888;8.330;2022-12-20T06:27:03;17.38;;;9.15;;
75768;SDS011;64379;48.888;8.330;2022-12-20T06:29:31;17.83;;;9.88;;
75768;SDS011;64379;48.888;8.330;2022-12-20T06:31:57;21.55;;;10.00;;
75768;SDS011;64379;48.888;8.330;2022-12-20T06:34:22;18.67;;;9.95;;
75768;SDS011;64379;48.888;8.330;2022-12-20T06:36:48;19.75;;;9.52;;
75768;SDS011;64379;48.888;8.330;2022-12-20T06:39:13;18.75;;;9.73;;
75768;SDS011;64379;48.888;8.330;2022-12-20T06:41:39;17.50;;;9.15;;
75768;SDS011;64379;48.888;8.330;2022-12-20T06:44:05;18.83;;;9.00;;
75768;SDS011;64379;48.888;8.330;2022-12-20T06:46:31;16.65;;;8.45;;
75768;SDS011;64379;48.888;8.330;2022-12-20T06:48:57;14.90;;;8.02;;
75768;SDS011;64379;48.888;8.330;2022-12-20T06:51:23;15.90;;;8.48;;
75768;SDS011;64379;48.888;8.330;2022-12-20T06:53:49;16.95;;;8.20;;
75768;SDS011;64379;48.888;8.330;2022-12-20T06:56:14;16.92;;;8.43;;
75768;SDS011;64379;48.888;8.330;2022-12-20T06:58:40;19.92;;;8.75;;
75768;SDS011;64379;48.888;8.330;2022-12-20T07:01:05;22.70;;;11.15;;
75768;SDS011;64379;48.888;8.330;2022-12-20T07:03:31;26.42;;;11.02;;
75768;SDS011;64379;48.888;8.330;2022-12-20T07:05:57;20.92;;;10.02;;
75768;SDS011;64379;48.888;8.330;2022-12-20T07:08:22;19.00;;;9.82;;
75768;SDS011;64379;48.888;8.330;2022-12-20T07:10:49;19.85;;;9.32;;
75768;SDS011;64379;48.888;8.330;2022-12-20T07:13:16;21.23;;;10.13;;
75768;SDS011;64379;48.888;8.330;2022-12-20T07:15:42;19.00;;;9.98;;
75768;SDS011;64379;48.888;8.330;2022-12-20T07:18:08;21.88;;;10.32;;
75768;SDS011;64379;48.888;8.330;2022-12-20T07:20:34;21.73;;;10.45;;
75768;SDS011;64379;48.888;8.330;2022-12-20T07:23:00;23.23;;;10.52;;
75768;SDS011;64379;48.888;8.330;2022-12-20T07:25:25;20.23;;;10.43;;
75768;SDS011;64379;48.888;8.330;2022-12-20T07:27:51;22.13;;;11.32;;
75768;SDS011;64379;48.888;8.330;2022-12-20T07:30:17;29.63;;;13.88;;
75768;SDS011;64379;48.888;8.330;2022-12-20T07:32:44;32.78;;;16.42;;
75768;SDS011;64379;48.888;8.330;2022-12-20T07:35:10;31.73;;;16.63;;
75768;SDS011;64379;48.888;8.330;2022-12-20T07:37:36;28.90;;;15.25;;
75768;SDS011;64379;48.888;8.330;2022-12-20T07:40:02;28.38;;;12.93;;
75768;SDS011;64379;48.888;8.330;2022-12-20T07:42:27;24.38;;;12.15;;
75768;SDS011;64379;48.888;8.330;2022-12-20T07:44:53;31.65;;;14.25;;
75768;SDS011;64379;48.888;8.330;2022-12-20T07:47:19;27.48;;;14.18;;
75768;SDS011;64379;48.888;8.330;2022-12-20T07:49:45;18.42;;;9.85;;
75768;SDS011;64379;48.888;8.330;2022-12-20T07:52:10;15.05;;;6.95;;
75768;SDS011;64379;48.888;8.330;2022-12-20T07:54:42;14.25;;;6.72;;
75768;SDS011;64379;48.888;8.330;2022-12-20T07:57:15;12.23;;;6.82;;
75768;SDS011;64379;48.888;8.330;2022-12-20T07:59:46;12.70;;;6.95;;
75768;SDS011;64379;48.888;8.330;2022-12-20T08:02:59;15.38;;;7.25;;
75768;SDS011;64379;48.888;8.330;2022-12-20T08:05:10;15.48;;;7.10;;
75768;SDS011;64379;48.888;8.330;2022-12-20T08:07:37;14.90;;;7.50;;
75768;SDS011;64379;48.888;8.330;2022-12-20T08:10:05;17.05;;;8.55;;
75768;SDS011;64379;48.888;8.330;2022-12-20T08:12:35;13.57;;;7.35;;
75768;SDS011;64379;48.888;8.330;2022-12-20T08:15:01;14.80;;;7.43;;
75768;SDS011;64379;48.888;8.330;2022-12-20T08:17:27;14.50;;;7.20;;
75768;SDS011;64379;48.888;8.330;2022-12-20T08:19:52;14.15;;;6.70;;
75768;SDS011;64379;48.888;8.330;2022-12-20T08:22:18;14.60;;;7.50;;
75768;SDS011;64379;48.888;8.330;2022-12-20T08:24:44;12.75;;;7.20;;
75768;SDS011;64379;48.888;8.330;2022-12-20T08:27:10;15.55;;;7.55;;
75768;SDS011;64379;48.888;8.330;2022-12-20T08:29:35;24.30;;;12.18;;
75768;SDS011;64379;48.888;8.330;2022-12-20T08:32:01;24.70;;;12.70;;
75768;SDS011;64379;48.888;8.330;2022-12-20T08:34:27;29.63;;;14.73;;
75768;SDS011;64379;48.888;8.330;2022-12-20T08:36:52;25.98;;;13.18;;
75768;SDS011;64379;48.888;8.330;2022-12-20T08:39:18;23.13;;;12.50;;
75768;SDS011;64379;48.888;8.330;2022-12-20T08:41:44;23.73;;;11.50;;
75768;SDS011;64379;48.888;8.330;2022-12-20T08:44:09;23.20;;;12.00;;
75768;SDS011;64379;48.888;8.330;2022-12-20T08:46:35;20.35;;;11.77;;
75768;SDS011;64379;48.888;8.330;2022-12-20T08:49:01;19.40;;;10.63;;
75768;SDS011;64379;48.888;8.330;2022-12-20T08:51:28;24.10;;;10.23;;
75768;SDS011;64379;48.888;8.330;2022-12-20T08:53:53;21.25;;;10.60;;
75768;SDS011;64379;48.888;8.330;2022-12-20T08:56:19;19.70;;;10.43;;
75768;SDS011;64379;48.888;8.330;2022-12-20T08:58:45;29.10;;;12.55;;
75768;SDS011;64379;48.888;8.330;2022-12-20T09:01:12;22.67;;;11.75;;
75768;SDS011;64379;48.888;8.330;2022-12-20T09:03:39;26.17;;;14.10;;
75768;SDS011;64379;48.888;8.330;2022-12-20T09:06:06;58.80;;;27.63;;
75768;SDS011;64379;48.888;8.330;2022-12-20T09:08:33;51.42;;;25.05;;
75768;SDS011;64379;48.888;8.330;2022-12-20T09:11:10;39.13;;;18.02;;
75768;SDS011;64379;48.888;8.330;2022-12-20T09:13:40;30.55;;;16.10;;
75768;SDS011;64379;48.888;8.330;2022-12-20T09:16:06;34.20;;;17.45;;
75768;SDS011;64379;48.888;8.330;2022-12-20T09:18:33;34.30;;;17.92;;
75768;SDS011;64379;48.888;8.330;2022-12-20T09:20:59;33.85;;;17.20;;
75768;SDS011;64379;48.888;8.330;2022-12-20T09:23:27;33.53;;;16.17;;
75768;SDS011;64379;48.888;8.330;2022-12-20T09:25:53;31.52;;;15.68;;
75768;SDS011;64379;48.888;8.330;2022-12-20T09:28:19;36.45;;;18.58;;
75768;SDS011;64379;48.888;8.330;2022-12-20T09:30:45;32.72;;;15.65;;
75768;SDS011;64379;48.888;8.330;2022-12-20T09:33:11;36.33;;;18.48;;
75768;SDS011;64379;48.888;8.330;2022-12-20T09:35:43;37.40;;;18.58;;
75768;SDS011;64379;48.888;8.330;2022-12-20T09:38:12;32.30;;;16.42;;
75768;SDS011;64379;48.888;8.330;2022-12-20T09:40:38;34.65;;;17.58;;
75768;SDS011;64379;48.888;8.330;2022-12-20T09:43:11;34.83;;;17.63;;
75768;SDS011;64379;48.888;8.330;2022-12-20T09:45:37;34.35;;;17.15;;
75768;SDS011;64379;48.888;8.330;2022-12-20T09:48:03;32.92;;;16.67;;
75768;SDS011;64379;48.888;8.330;2022-12-20T09:56:38;32.50;;;16.83;;
75768;SDS011;64379;48.888;8.330;2022-12-20T09:59:23;29.15;;;14.57;;
75768;SDS011;64379;48.888;8.330;2022-12-20T10:01:49;27.48;;;14.88;;
75768;SDS011;64379;48.888;8.330;2022-12-20T10:04:22;42.00;;;19.40;;
75768;SDS011;64379;48.888;8.330;2022-12-20T10:15:03;32.88;;;17.73;;
75768;SDS011;64379;48.888;8.330;2022-12-20T10:23:06;19.15;;;10.63;;
75768;SDS011;64379;48.888;8.330;2022-12-20T10:25:35;19.63;;;10.00;;
75768;SDS011;64379;48.888;8.330;2022-12-20T10:28:02;18.55;;;9.05;;
75768;SDS011;64379;48.888;8.330;2022-12-20T10:30:34;20.65;;;9.18;;
75768;SDS011;64379;48.888;8.330;2022-12-20T10:32:59;17.75;;;9.30;;
75768;SDS011;64379;48.888;8.330;2022-12-20T10:35:29;18.42;;;9.18;;
75768;SDS011;64379;48.888;8.330;2022-12-20T10:38:02;20.80;;;9.48;;
75768;SDS011;64379;48.888;8.330;2022-12-20T10:40:35;19.73;;;10.13;;
75768;SDS011;64379;48.888;8.330;2022-12-20T10:43:03;24.92;;;12.38;;
75768;SDS011;64379;48.888;8.330;2022-12-20T10:45:37;22.20;;;11.15;;
75768;SDS011;64379;48.888;8.330;2022-12-20T10:48:06;22.50;;;11.82;;
75768;SDS011;64379;48.888;8.330;2022-12-20T10:53:27;19.58;;;10.30;;
75768;SDS011;64379;48.888;8.330;2022-12-20T10:56:08;19.60;;;11.10;;
75768;SDS011;64379;48.888;8.330;2022-12-20T10:58:54;21.70;;;10.65;;
75768;SDS011;64379;48.888;8.330;2022-12-20T11:01:23;19.33;;;8.98;;
75768;SDS011;64379;48.888;8.330;2022-12-20T11:06:21;16.70;;;9.30;;
75768;SDS011;64379;48.888;8.330;2022-12-20T11:08:49;19.30;;;10.50;;
75768;SDS011;64379;48.888;8.330;2022-12-20T11:13:48;20.48;;;9.80;;
75768;SDS011;64379;48.888;8.330;2022-12-20T11:18:52;20.95;;;9.90;;
75768;SDS011;64379;48.888;8.330;2022-12-20T11:26:51;18.00;;;9.43;;
75768;SDS011;64379;48.888;8.330;2022-12-20T11:32:22;18.67;;;10.25;;
75768;SDS011;64379;48.888;8.330;2022-12-20T11:37:33;18.35;;;9.23;;
75768;SDS011;64379;48.888;8.330;2022-12-20T11:40:29;19.17;;;9.30;;
75768;SDS011;64379;48.888;8.330;2022-12-20T11:53:59;16.60;;;8.90;;
75768;SDS011;64379;48.888;8.330;2022-12-20T11:56:37;16.33;;;8.55;;
75768;SDS011;64379;48.888;8.330;2022-12-20T12:01:39;18.90;;;9.02;;
75768;SDS011;64379;48.888;8.330;2022-12-20T12:04:26;20.20;;;8.82;;
75768;SDS011;64379;48.888;8.330;2022-12-20T12:07:01;16.95;;;8.70;;
75768;SDS011;64379;48.888;8.330;2022-12-20T12:09:35;16.50;;;8.20;;
75768;SDS011;64379;48.888;8.330;2022-12-20T12:12:33;22.05;;;9.35;;
75768;SDS011;64379;48.888;8.330;2022-12-20T12:18:06;18.80;;;9.02;;
75768;SDS011;64379;48.888;8.330;2022-12-20T12:23:20;21.63;;;11.82;;
75768;SDS011;64379;48.888;8.330;2022-12-20T12:26:01;16.88;;;10.52;;
75768;SDS011;64379;48.888;8.330;2022-12-20T12:28:31;17.70;;;9.82;;
75768;SDS011;64379;48.888;8.330;2022-12-20T12:30:59;18.13;;;8.38;;
75768;SDS011;64379;48.888;8.330;2022-12-20T12:33:34;16.60;;;8.65;;
75768;SDS011;64379;48.888;8.330;2022-12-20T12:42:08;17.42;;;8.85;;
75768;SDS011;64379;48.888;8.330;2022-12-20T12:45:02;16.73;;;8.45;;
75768;SDS011;64379;48.888;8.330;2022-12-20T12:47:39;18.30;;;8.40;;
75768;SDS011;64379;48.888;8.330;2022-12-20T12:50:24;16.77;;;8.40;;
75768;SDS011;64379;48.888;8.330;2022-12-20T12:53:12;16.65;;;8.18;;
75768;SDS011;64379;48.888;8.330;2022-12-20T12:55:48;17.98;;;9.60;;
75768;SDS011;64379;48.888;8.330;2022-12-20T13:00:48;20.13;;;9.40;;
75768;SDS011;64379;48.888;8.330;2022-12-20T13:03:15;16.92;;;8.57;;
75768;SDS011;64379;48.888;8.330;2022-12-20T13:06:18;17.80;;;8.80;;
75768;SDS011;64379;48.888;8.330;2022-12-20T13:09:09;16.35;;;8.75;;
75768;SDS011;64379;48.888;8.330;2022-12-20T13:11:42;17.27;;;8.32;;
75768;SDS011;64379;48.888;8.330;2022-12-20T13:14:45;18.52;;;9.82;;
75768;SDS011;64379;48.888;8.330;2022-12-20T13:27:37;20.27;;;9.80;;
75768;SDS011;64379;48.888;8.330;2022-12-20T13:38:20;16.80;;;8.50;;
75768;SDS011;64379;48.888;8.330;2022-12-20T13:43:41;21.67;;;9.55;;
75768;SDS011;64379;48.888;8.330;2022-12-20T13:51:02;17.63;;;9.35;;
75768;SDS011;64379;48.888;8.330;2022-12-20T13:53:29;17.85;;;8.40;;
75768;SDS011;64379;48.888;8.330;2022-12-20T13:55:55;15.88;;;8.05;;
75768;SDS011;64379;48.888;8.330;2022-12-20T13:58:23;15.50;;;8.05;;
75768;SDS011;64379;48.888;8.330;2022-12-20T14:01:02;20.17;;;8.93;;
75768;SDS011;64379;48.888;8.330;2022-12-20T14:03:30;16.33;;;8.50;;
75768;SDS011;64379;48.888;8.330;2022-12-20T14:06:03;16.05;;;8.63;;
75768;SDS011;64379;48.888;8.330;2022-12-20T14:08:35;15.07;;;8.80;;
75768;SDS011;64379;48.888;8.330;2022-12-20T14:11:10;16.90;;;7.72;;
75768;SDS011;64379;48.888;8.330;2022-12-20T14:16:41;17.00;;;8.00;;
75768;SDS011;64379;48.888;8.330;2022-12-20T14:19:12;14.63;;;7.95;;
75768;SDS011;64379;48.888;8.330;2022-12-20T14:21:39;13.30;;;7.65;;
75768;SDS011;64379;48.888;8.330;2022-12-20T14:24:13;13.75;;;7.60;;
75768;SDS011;64379;48.888;8.330;2022-12-20T14:26:42;18.35;;;8.38;;
75768;SDS011;64379;48.888;8.330;2022-12-20T14:29:11;14.20;;;7.80;;
75768;SDS011;64379;48.888;8.330;2022-12-20T14:31:43;16.90;;;8.20;;
75768;SDS011;64379;48.888;8.330;2022-12-20T14:36:41;14.38;;;8.23;;
75768;SDS011;64379;48.888;8.330;2022-12-20T14:42:01;20.25;;;9.35;;
75768;SDS011;64379;48.888;8.330;2022-12-20T14:44:36;18.13;;;9.15;;
75768;SDS011;64379;48.888;8.330;2022-12-20T14:47:04;22.42;;;10.70;;
75768;SDS011;64379;48.888;8.330;2022-12-20T14:49:40;23.38;;;10.73;;
75768;SDS011;64379;48.888;8.330;2022-12-20T14:52:37;18.95;;;10.27;;
75768;SDS011;64379;48.888;8.330;2022-12-20T15:05:06;18.20;;;9.82;;
75768;SDS011;64379;48.888;8.330;2022-12-20T15:07:33;17.17;;;9.52;;
75768;SDS011;64379;48.888;8.330;2022-12-20T15:09:59;21.50;;;10.75;;
75768;SDS011;64379;48.888;8.330;2022-12-20T15:12:25;22.25;;;10.73;;
75768;SDS011;64379;48.888;8.330;2022-12-20T15:14:50;19.55;;;10.98;;
75768;SDS011;64379;48.888;8.330;2022-12-20T15:17:16;19.77;;;10.85;;
75768;SDS011;64379;48.888;8.330;2022-12-20T15:19:41;26.83;;;12.30;;
75768;SDS011;64379;48.888;8.330;2022-12-20T15:22:12;24.50;;;11.98;;
75768;SDS011;64379;48.888;8.330;2022-12-20T15:24:41;53.25;;;20.45;;
75768;SDS011;64379;48.888;8.330;2022-12-20T15:27:13;39.47;;;17.05;;
75768;SDS011;64379;48.888;8.330;2022-12-20T15:29:39;40.20;;;17.05;;
75768;SDS011;64379;48.888;8.330;2022-12-20T15:32:16;36.47;;;17.48;;
75768;SDS011;64379;48.888;8.330;2022-12-20T15:34:48;36.50;;;15.57;;
75768;SDS011;64379;48.888;8.330;2022-12-20T15:37:15;48.05;;;23.92;;
75768;SDS011;64379;48.888;8.330;2022-12-20T15:39:41;40.38;;;19.63;;
75768;SDS011;64379;48.888;8.330;2022-12-20T15:42:08;39.83;;;19.50;;
75768;SDS011;64379;48.888;8.330;2022-12-20T15:44:38;35.03;;;17.27;;
75768;SDS011;64379;48.888;8.330;2022-12-20T15:47:04;35.92;;;19.33;;
75768;SDS011;64379;48.888;8.330;2022-12-20T15:49:31;45.38;;;20.38;;
75768;SDS011;64379;48.888;8.330;2022-12-20T15:51:57;41.30;;;19.88;;
75768;SDS011;64379;48.888;8.330;2022-12-20T15:56:49;37.15;;;18.70;;
75768;SDS011;64379;48.888;8.330;2022-12-20T15:59:15;36.20;;;19.05;;
75768;SDS011;64379;48.888;8.330;2022-12-20T16:01:40;43.97;;;22.08;;
75768;SDS011;64379;48.888;8.330;2022-12-20T16:04:06;45.08;;;22.73;;
75768;SDS011;64379;48.888;8.330;2022-12-20T16:06:37;42.08;;;22.90;;
75768;SDS011;64379;48.888;8.330;2022-12-20T16:09:02;38.72;;;20.02;;
75768;SDS011;64379;48.888;8.330;2022-12-20T16:11:28;38.22;;;19.50;;
75768;SDS011;64379;48.888;8.330;2022-12-20T16:13:55;37.28;;;20.60;;
75768;SDS011;64379;48.888;8.330;2022-12-20T16:16:23;58.22;;;23.77;;
75768;SDS011;64379;48.888;8.330;2022-12-20T16:18:53;55.00;;;22.67;;
75768;SDS011;64379;48.888;8.330;2022-12-20T16:21:21;43.05;;;20.50;;
75768;SDS011;64379;48.888;8.330;2022-12-20T16:26:17;57.80;;;29.27;;
75768;SDS011;64379;48.888;8.330;2022-12-20T16:28:46;43.50;;;22.33;;
75768;SDS011;64379;48.888;8.330;2022-12-20T16:33:41;48.47;;;22.42;;
75768;SDS011;64379;48.888;8.330;2022-12-20T16:36:08;39.85;;;20.65;;
75768;SDS011;64379;48.888;8.330;2022-12-20T16:38:35;38.88;;;20.27;;
75768;SDS011;64379;48.888;8.330;2022-12-20T16:41:08;41.78;;;20.48;;
75768;SDS011;64379;48.888;8.330;2022-12-20T16:43:36;37.17;;;18.98;;
75768;SDS011;64379;48.888;8.330;2022-12-20T16:46:02;28.77;;;15.32;;
75768;SDS011;64379;48.888;8.330;2022-12-20T16:48:28;26.25;;;14.05;;
75768;SDS011;64379;48.888;8.330;2022-12-20T16:50:53;29.17;;;13.82;;
75768;SDS011;64379;48.888;8.330;2022-12-20T16:53:20;26.23;;;12.35;;
75768;SDS011;64379;48.888;8.330;2022-12-20T16:55:46;24.00;;;12.00;;
75768;SDS011;64379;48.888;8.330;2022-12-20T16:58:11;21.33;;;11.90;;
75768;SDS011;64379;48.888;8.330;2022-12-20T17:00:37;23.02;;;11.45;;